Time;durP1;ratioP1;P1;durP2;ratioP2;P2;SDS_P1;SDS_P2;PMS_P1;PMS_P2;Temp;Humidity;BMP_temperature;BMP_pressure;BME280_temperature;BME280_humidity;BME280_pressure;Samples;Min_cycle;Max_cycle;Signal;HPM_P1;HPM_P2
2021/05/01 00:01:28;;;;;;;1.70;1.40;;;23.00;36.20;;;;;;5024311;28;20025;-44
2021/05/01 00:03:53;;;;;;;1.42;1.02;;;22.90;36.10;;;;;;5032395;28;20096;-47
2021/05/01 00:06:19;;;;;;;1.83;1.13;;;22.90;36.10;;;;;;5030778;28;20094;-45
2021/05/01 00:08:45;;;;;;;1.58;1.38;;;22.90;36.10;;;;;;5029778;28;20032;-46
2021/05/01 00:11:10;;;;;;;1.50;1.02;;;22.90;36.10;;;;;;5030608;28;20432;-45
2021/05/01 00:13:36;;;;;;;1.92;1.38;;;22.90;36.10;;;;;;5028778;28;20502;-45
2021/05/01 00:16:03;;;;;;;1.17;1.08;;;22.90;36.10;;;;;;5028581;28;20029;-45
2021/05/01 00:18:29;;;;;;;1.33;1.05;;;22.90;36.10;;;;;;5027006;28;20033;-44
2021/05/01 00:20:55;;;;;;;1.52;1.30;;;22.90;36.10;;;;;;5028809;28;20029;-46
2021/05/01 00:23:21;;;;;;;1.88;1.20;;;22.90;36.10;;;;;;5030082;28;20029;-44
2021/05/01 00:25:47;;;;;;;2.00;1.30;;;22.90;36.10;;;;;;5029471;28;20052;-44
2021/05/01 00:28:13;;;;;;;1.52;0.68;;;22.90;36.10;;;;;;5029822;28;20471;-46
2021/05/01 00:30:39;;;;;;;1.65;1.00;;;22.90;36.10;;;;;;5029857;28;20029;-47
2021/05/01 00:33:05;;;;;;;1.25;1.10;;;22.90;36.10;;;;;;5030279;28;20018;-46
2021/05/01 00:35:31;;;;;;;1.27;0.88;;;22.80;36.10;;;;;;5028683;28;20048;-46
2021/05/01 00:37:56;;;;;;;1.55;1.02;;;22.80;36.10;;;;;;5034505;28;20028;-42
2021/05/01 00:40:22;;;;;;;2.10;1.13;;;22.80;36.10;;;;;;5032877;28;20093;-46
2021/05/01 00:42:48;;;;;;;1.75;1.02;;;22.80;36.10;;;;;;5030971;28;20072;-45
2021/05/01 00:45:14;;;;;;;3.65;1.50;;;22.80;36.10;;;;;;5030866;28;20033;-46
2021/05/01 00:47:39;;;;;;;1.73;1.05;;;22.80;36.10;;;;;;5032226;28;20030;-43
2021/05/01 00:50:06;;;;;;;1.23;0.93;;;22.80;36.10;;;;;;5029488;28;20033;-44
2021/05/01 00:52:34;;;;;;;1.38;1.23;;;22.80;36.10;;;;;;5029202;28;20026;-45
2021/05/01 00:55:01;;;;;;;1.67;0.95;;;22.80;36.10;;;;;;5027753;28;20025;-43
2021/05/01 00:57:27;;;;;;;0.75;0.57;;;22.80;36.10;;;;;;5034905;28;20037;-43
2021/05/01 00:59:53;;;;;;;1.70;1.10;;;22.80;36.10;;;;;;5029097;28;20056;-45
2021/05/01 01:02:22;;;;;;;1.30;0.90;;;22.80;36.10;;;;;;5030240;28;20470;-44
2021/05/01 01:04:47;;;;;;;0.95;0.77;;;22.70;36.00;;;;;;5028602;28;20836;-45
2021/05/01 01:07:13;;;;;;;2.60;0.68;;;22.80;36.10;;;;;;5029223;28;20025;-47
2021/05/01 01:09:38;;;;;;;1.48;1.00;;;22.80;36.10;;;;;;5032934;28;20021;-41
2021/05/01 01:12:06;;;;;;;1.05;0.70;;;22.80;36.10;;;;;;5028773;28;20108;-42
2021/05/01 01:14:32;;;;;;;2.28;0.98;;;22.70;36.00;;;;;;5028770;28;20024;-46
2021/05/01 01:16:57;;;;;;;1.38;1.00;;;22.70;36.00;;;;;;5024061;28;20033;-44
2021/05/01 01:19:23;;;;;;;1.15;0.82;;;22.70;36.50;;;;;;5028914;28;20060;-44
2021/05/01 01:21:49;;;;;;;1.50;1.13;;;22.70;36.00;;;;;;5029893;28;20506;-44
2021/05/01 01:24:16;;;;;;;1.20;0.88;;;22.70;36.00;;;;;;5027911;28;20559;-44
2021/05/01 01:26:42;;;;;;;1.77;0.93;;;22.70;36.00;;;;;;5028402;28;20037;-47
2021/05/01 01:29:12;;;;;;;1.63;0.93;;;22.70;36.00;;;;;;5028612;28;20021;-45
2021/05/01 01:31:38;;;;;;;1.05;0.80;;;22.70;36.00;;;;;;5032448;28;20479;-45
2021/05/01 01:34:04;;;;;;;1.10;0.65;;;22.70;36.00;;;;;;5031040;28;20079;-44
2021/05/01 01:36:30;;;;;;;1.20;1.02;;;22.70;36.00;;;;;;5032835;28;20402;-44
2021/05/01 01:38:56;;;;;;;1.30;0.88;;;22.70;36.00;;;;;;5027164;28;20026;-45
2021/05/01 01:41:22;;;;;;;3.13;0.77;;;22.70;36.00;;;;;;5028728;28;20026;-45
2021/05/01 01:43:48;;;;;;;1.45;0.75;;;22.70;36.00;;;;;;5028718;28;20043;-45
2021/05/01 01:46:13;;;;;;;1.30;0.73;;;22.70;36.00;;;;;;5028133;28;20368;-46
2021/05/01 01:48:39;;;;;;;1.15;0.80;;;22.70;36.00;;;;;;5029086;28;20029;-43
2021/05/01 01:51:05;;;;;;;1.77;0.70;;;22.60;36.00;;;;;;5029772;28;20100;-44
2021/05/01 01:53:30;;;;;;;1.15;0.68;;;22.60;36.00;;;;;;5036554;28;20036;-44
2021/05/01 01:55:56;;;;;;;0.95;0.52;;;22.60;36.00;;;;;;5029777;28;20029;-45
2021/05/01 01:58:22;;;;;;;1.00;0.90;;;22.60;36.00;;;;;;5028595;28;20068;-45
2021/05/01 02:00:50;;;;;;;1.33;0.63;;;22.60;36.00;;;;;;5029353;28;20546;-42
2021/05/01 02:03:17;;;;;;;0.75;0.52;;;22.60;36.00;;;;;;5031112;28;20033;-49
2021/05/01 02:05:44;;;;;;;0.85;0.50;;;22.60;36.00;;;;;;5020690;28;20061;-45
2021/05/01 02:08:10;;;;;;;1.35;0.77;;;22.60;36.00;;;;;;5028287;28;20052;-43
2021/05/01 02:10:36;;;;;;;1.02;0.55;;;22.60;36.00;;;;;;5028209;28;20049;-42
2021/05/01 02:13:02;;;;;;;1.30;0.80;;;22.60;36.00;;;;;;5025241;28;20091;-46
2021/05/01 02:15:28;;;;;;;1.20;0.88;;;22.60;36.00;;;;;;5022232;28;20455;-46
2021/05/01 02:17:56;;;;;;;0.80;0.50;;;22.60;36.00;;;;;;5027938;28;20072;-45
2021/05/01 02:20:33;;;;;;;2.30;0.50;;;22.60;36.00;;;;;;5027654;28;20060;-45
2021/05/01 02:22:59;;;;;;;0.90;0.60;;;22.60;36.00;;;;;;5030823;28;20140;-44
2021/05/01 02:25:26;;;;;;;0.70;0.50;;;22.60;36.00;;;;;;5033341;28;20497;-45
2021/05/01 02:27:52;;;;;;;2.05;0.60;;;22.60;36.00;;;;;;5033735;28;20608;-44
2021/05/01 02:30:20;;;;;;;1.13;0.45;;;22.50;35.90;;;;;;5032236;28;20063;-45
2021/05/01 02:32:46;;;;;;;1.17;0.52;;;22.60;36.00;;;;;;5031627;28;20072;-44
2021/05/01 02:35:14;;;;;;;0.90;0.60;;;22.60;36.00;;;;;;5034198;28;20599;-44
2021/05/01 02:37:40;;;;;;;1.17;0.70;;;22.50;35.90;;;;;;5031382;28;20479;-46
2021/05/01 02:40:08;;;;;;;0.93;0.57;;;22.50;36.00;;;;;;5031821;28;20033;-43
2021/05/01 02:42:34;;;;;;;0.90;0.47;;;22.50;35.90;;;;;;5030341;28;20667;-43
2021/05/01 02:45:00;;;;;;;1.05;0.60;;;22.50;36.00;;;;;;5030199;28;20041;-44
2021/05/01 02:47:26;;;;;;;1.00;0.70;;;22.50;36.00;;;;;;5030436;28;20029;-45
2021/05/01 02:49:51;;;;;;;1.25;0.57;;;22.50;36.00;;;;;;5031723;28;20033;-46
2021/05/01 02:52:17;;;;;;;2.72;0.30;;;22.50;36.00;;;;;;5031800;28;20537;-46
2021/05/01 02:54:43;;;;;;;0.88;0.68;;;22.50;36.00;;;;;;5031227;28;20101;-46
2021/05/01 02:57:08;;;;;;;0.98;0.68;;;22.50;35.90;;;;;;5034086;28;20033;-44
2021/05/01 02:59:34;;;;;;;0.80;0.73;;;22.50;36.00;;;;;;5036258;28;20100;-45
2021/05/01 03:01:59;;;;;;;0.80;0.50;;;22.50;36.00;;;;;;5032095;28;20065;-46
2021/05/01 03:04:25;;;;;;;0.85;0.52;;;22.50;36.00;;;;;;5031442;28;20041;-44
2021/05/01 03:06:50;;;;;;;0.80;0.55;;;22.50;36.00;;;;;;5024428;28;20060;-46
2021/05/01 03:09:16;;;;;;;1.23;0.60;;;22.50;36.00;;;;;;5033718;28;20056;-45
2021/05/01 03:11:42;;;;;;;0.90;0.65;;;22.50;36.00;;;;;;5032038;28;20033;-45
2021/05/01 03:14:08;;;;;;;0.93;0.60;;;22.50;35.90;;;;;;5033168;28;20139;-41
2021/05/01 03:16:33;;;;;;;1.30;0.55;;;22.50;35.90;;;;;;5032217;28;20033;-42
2021/05/01 03:18:59;;;;;;;0.98;0.43;;;22.40;35.90;;;;;;5030872;28;20025;-43
2021/05/01 03:21:25;;;;;;;0.70;0.40;;;22.50;36.00;;;;;;5031229;28;20052;-45
2021/05/01 03:23:52;;;;;;;1.05;0.52;;;22.50;35.90;;;;;;5031180;28;20431;-46
2021/05/01 03:26:19;;;;;;;0.95;0.50;;;22.40;35.90;;;;;;5032047;28;20108;-46
2021/05/01 03:28:45;;;;;;;1.10;0.65;;;22.40;35.90;;;;;;5030483;28;20060;-44
2021/05/01 03:31:11;;;;;;;0.77;0.30;;;22.50;36.00;;;;;;5041652;28;20052;-44
2021/05/01 03:33:37;;;;;;;0.98;0.40;;;22.40;35.90;;;;;;5040843;28;20028;-45
2021/05/01 03:36:04;;;;;;;0.68;0.30;;;22.40;35.90;;;;;;5035390;28;20044;-46
2021/05/01 03:38:30;;;;;;;0.95;0.45;;;22.40;35.90;;;;;;5036159;28;20037;-46
2021/05/01 03:40:56;;;;;;;0.73;0.40;;;22.40;35.90;;;;;;5030756;28;20490;-45
2021/05/01 03:43:22;;;;;;;0.77;0.30;;;22.40;35.90;;;;;;5029895;28;20041;-45
2021/05/01 03:45:48;;;;;;;3.72;0.50;;;22.40;35.90;;;;;;5028877;28;20172;-46
2021/05/01 03:48:14;;;;;;;0.75;0.40;;;22.40;35.90;;;;;;5030367;28;20052;-45
2021/05/01 03:50:40;;;;;;;0.68;0.30;;;22.40;35.90;;;;;;5024406;28;20483;-46
2021/05/01 03:53:05;;;;;;;2.15;0.50;;;22.40;36.50;;;;;;5030108;28;20021;-45
2021/05/01 03:55:31;;;;;;;1.20;0.50;;;22.40;35.90;;;;;;5027818;28;20030;-46
2021/05/01 03:57:56;;;;;;;2.15;0.30;;;22.40;36.00;;;;;;5031200;28;20026;-44
2021/05/01 04:00:23;;;;;;;1.90;0.63;;;22.40;35.90;;;;;;5031959;28;20021;-46
2021/05/01 04:02:49;;;;;;;0.80;0.60;;;22.40;35.90;;;;;;5029560;28;20040;-46
2021/05/01 04:05:14;;;;;;;0.93;0.50;;;22.40;35.90;;;;;;5026911;28;20442;-45
2021/05/01 04:07:41;;;;;;;1.33;0.60;;;22.30;35.90;;;;;;5027368;28;20052;-42
2021/05/01 04:10:08;;;;;;;1.50;0.68;;;22.30;35.90;;;;;;5030094;28;20529;-44
2021/05/01 04:12:33;;;;;;;0.98;0.50;;;22.30;35.90;;;;;;5030911;28;20564;-44
2021/05/01 04:14:59;;;;;;;1.45;0.60;;;22.30;35.90;;;;;;5031498;28;20025;-45
2021/05/01 04:17:25;;;;;;;1.15;0.60;;;22.30;35.90;;;;;;5030133;28;20029;-47
2021/05/01 04:19:50;;;;;;;2.72;0.40;;;22.30;35.90;;;;;;5034198;28;20033;-44
2021/05/01 04:22:20;;;;;;;0.70;0.50;;;22.30;35.90;;;;;;5029773;28;20033;-47
2021/05/01 04:24:46;;;;;;;1.13;0.43;;;22.30;35.90;;;;;;5029316;28;20068;-46
2021/05/01 04:27:11;;;;;;;0.80;0.40;;;22.30;35.90;;;;;;5029975;28;20026;-42
2021/05/01 04:29:37;;;;;;;1.92;0.40;;;22.30;35.90;;;;;;5029515;28;20028;-46
2021/05/01 04:32:02;;;;;;;0.93;0.30;;;22.30;35.90;;;;;;5029531;28;20104;-44
2021/05/01 04:34:28;;;;;;;1.60;0.40;;;22.30;35.90;;;;;;5028829;28;20077;-46
2021/05/01 04:36:54;;;;;;;0.98;0.57;;;22.30;35.90;;;;;;5029503;28;20040;-45
2021/05/01 04:39:19;;;;;;;0.77;0.40;;;22.30;35.90;;;;;;5029510;28;20033;-44
2021/05/01 04:41:45;;;;;;;2.13;0.30;;;22.30;35.90;;;;;;5029855;28;20132;-46
2021/05/01 04:44:11;;;;;;;1.02;0.70;;;22.30;35.90;;;;;;5029579;28;20029;-45
2021/05/01 04:46:37;;;;;;;1.00;0.50;;;22.30;35.80;;;;;;5029070;28;20033;-44
2021/05/01 04:49:06;;;;;;;0.70;0.50;;;22.30;35.80;;;;;;5029024;28;20490;-44
2021/05/01 04:51:33;;;;;;;1.17;0.68;;;22.30;35.90;;;;;;5028935;28;20064;-44
2021/05/01 04:53:59;;;;;;;1.35;0.30;;;22.20;35.80;;;;;;5021489;28;20047;-44
2021/05/01 04:56:25;;;;;;;1.10;0.40;;;22.30;36.40;;;;;;5028599;28;20030;-46
2021/05/01 04:58:51;;;;;;;0.65;0.30;;;22.20;35.80;;;;;;5029285;28;20025;-43
2021/05/01 05:01:16;;;;;;;2.15;0.30;;;22.30;35.90;;;;;;5028950;28;20505;-46
2021/05/01 05:03:42;;;;;;;2.00;0.40;;;22.20;35.80;;;;;;5030587;28;20040;-45
2021/05/01 05:06:07;;;;;;;1.00;0.30;;;22.20;35.90;;;;;;5033361;28;20037;-46
2021/05/01 05:08:33;;;;;;;1.70;0.43;;;22.20;35.80;;;;;;5030640;28;20025;-43
2021/05/01 05:10:59;;;;;;;1.02;0.50;;;22.20;35.80;;;;;;5036669;28;20076;-45
2021/05/01 05:13:25;;;;;;;0.65;0.35;;;22.20;35.90;;;;;;5028708;28;20030;-45
2021/05/01 05:15:52;;;;;;;1.00;0.30;;;22.20;35.90;;;;;;5028613;28;20537;-45
2021/05/01 05:18:17;;;;;;;0.70;0.47;;;22.20;35.80;;;;;;5031533;28;20482;-46
2021/05/01 05:20:43;;;;;;;1.25;0.50;;;22.20;35.90;;;;;;5034364;28;20039;-47
2021/05/01 05:23:09;;;;;;;1.08;0.45;;;22.20;35.90;;;;;;5030715;28;20039;-46
2021/05/01 05:25:34;;;;;;;0.70;0.40;;;22.20;35.80;;;;;;5029556;28;20026;-44
2021/05/01 05:28:00;;;;;;;0.77;0.35;;;22.20;35.90;;;;;;5028732;28;20018;-48
2021/05/01 05:30:25;;;;;;;0.82;0.30;;;22.20;35.90;;;;;;5029079;28;20044;-46
2021/05/01 05:32:53;;;;;;;1.00;0.50;;;22.20;35.90;;;;;;5028796;28;20171;-45
2021/05/01 05:35:18;;;;;;;0.60;0.40;;;22.20;35.90;;;;;;5035327;28;20439;-45
2021/05/01 05:37:44;;;;;;;0.63;0.30;;;22.20;35.90;;;;;;5028706;28;20025;-45
2021/05/01 05:40:11;;;;;;;2.63;0.65;;;22.20;35.90;;;;;;5028804;28;20394;-45
2021/05/01 05:42:37;;;;;;;0.60;0.38;;;22.20;35.90;;;;;;5028591;28;20036;-44
2021/05/01 05:45:03;;;;;;;0.70;0.50;;;22.20;35.90;;;;;;5027664;28;20025;-46
2021/05/01 05:47:29;;;;;;;0.77;0.38;;;22.20;35.90;;;;;;5027563;28;20021;-45
2021/05/01 05:49:54;;;;;;;0.73;0.32;;;22.20;35.90;;;;;;5028738;28;20036;-43
2021/05/01 05:52:20;;;;;;;2.83;0.55;;;22.20;35.90;;;;;;5023713;28;20029;-44
2021/05/01 05:54:45;;;;;;;0.65;0.40;;;22.20;35.90;;;;;;5035802;28;20028;-45
2021/05/01 05:57:11;;;;;;;1.10;0.40;;;22.20;35.90;;;;;;5037770;28;20044;-44
2021/05/01 05:59:37;;;;;;;0.45;0.25;;;22.20;35.90;;;;;;5032355;28;20037;-44
2021/05/01 06:02:04;;;;;;;0.90;0.40;;;22.20;35.90;;;;;;5032790;28;20026;-44
2021/05/01 06:04:54;;;;;;;0.70;0.30;;;22.20;35.90;;;;;;5033201;28;20660;-46
2021/05/01 06:07:26;;;;;;;0.88;0.30;;;22.20;35.90;;;;;;5016283;28;20053;-46
2021/05/01 06:09:53;;;;;;;0.70;0.38;;;22.20;35.90;;;;;;5032053;28;20042;-45
2021/05/01 06:12:22;;;;;;;0.75;0.50;;;22.20;35.90;;;;;;5032711;28;20029;-47
2021/05/01 06:14:49;;;;;;;0.70;0.30;;;22.20;35.80;;;;;;5031085;28;20040;-44
2021/05/01 06:17:20;;;;;;;1.10;0.32;;;22.20;35.80;;;;;;5036843;28;20021;-43
2021/05/01 06:19:46;;;;;;;;;;;22.20;35.80;;;;;;5035884;28;20479;-45
2021/05/01 06:22:12;;;;;;;0.50;0.30;;;22.10;35.80;;;;;;5031511;28;19913;-44
2021/05/01 06:24:39;;;;;;;0.80;0.30;;;22.10;35.80;;;;;;5032478;28;20028;-45
2021/05/01 06:27:05;;;;;;;1.20;0.38;;;22.20;35.80;;;;;;5032868;28;20099;-44
2021/05/01 06:29:31;;;;;;;1.02;0.63;;;22.10;35.80;;;;;;5034542;28;20105;-47
2021/05/01 06:31:58;;;;;;;1.10;0.38;;;22.20;35.80;;;;;;5036278;28;20123;-46
2021/05/01 06:34:24;;;;;;;1.27;0.40;;;22.20;35.80;;;;;;5034070;28;20080;-46
2021/05/01 06:36:50;;;;;;;0.82;0.43;;;22.20;35.80;;;;;;5033360;28;20049;-43
2021/05/01 06:39:16;;;;;;;1.08;0.40;;;22.20;36.40;;;;;;5034950;28;20036;-45
2021/05/01 06:41:55;;;;;;;0.82;0.30;;;22.20;35.80;;;;;;5034015;28;20044;-45
2021/05/01 06:44:35;;;;;;;0.80;0.40;;;22.20;35.80;;;;;;5031014;28;20022;-43
2021/05/01 06:47:00;;;;;;;1.23;0.30;;;22.20;35.80;;;;;;5030413;28;20088;-44
2021/05/01 06:49:31;;;;;;;0.93;0.40;;;22.20;35.80;;;;;;5032214;28;20022;-44
2021/05/01 06:52:03;;;;;;;0.55;0.30;;;22.20;35.80;;;;;;5032771;28;20019;-44
2021/05/01 06:54:30;;;;;;;1.38;0.50;;;22.20;35.80;;;;;;5031611;28;20541;-44
2021/05/01 06:56:56;;;;;;;1.95;0.30;;;22.20;35.70;;;;;;5025636;28;20025;-47
2021/05/01 06:59:23;;;;;;;0.95;0.40;;;22.20;35.80;;;;;;5031434;28;20502;-44
2021/05/01 07:01:49;;;;;;;0.77;0.28;;;22.20;35.80;;;;;;5031614;28;20029;-45
2021/05/01 07:04:16;;;;;;;1.80;0.43;;;22.20;35.80;;;;;;5030746;28;20549;-45
2021/05/01 07:06:43;;;;;;;1.00;0.40;;;22.20;35.90;;;;;;5038162;28;20056;-44
2021/05/01 07:09:09;;;;;;;0.88;0.38;;;22.20;35.90;;;;;;5029376;28;20445;-45
2021/05/01 07:11:35;;;;;;;0.70;0.40;;;22.20;35.90;;;;;;5031047;28;20025;-45
2021/05/01 07:14:03;;;;;;;1.67;0.43;;;22.20;35.80;;;;;;5031104;28;20364;-45
2021/05/01 07:16:28;;;;;;;1.52;0.20;;;22.20;35.80;;;;;;5036127;28;20719;-45
2021/05/01 07:18:58;;;;;;;1.15;0.50;;;22.20;35.80;;;;;;5026388;28;20041;-43
2021/05/01 07:21:24;;;;;;;1.58;0.40;;;22.20;35.80;;;;;;5031299;28;20021;-47
2021/05/01 07:23:49;;;;;;;2.50;0.47;;;22.20;35.80;;;;;;5030972;28;20395;-46
2021/05/01 07:26:20;;;;;;;2.53;0.40;;;22.20;35.80;;;;;;5032216;28;20111;-43
2021/05/01 07:28:49;;;;;;;1.75;0.50;;;22.20;35.80;;;;;;5027497;28;20026;-45
2021/05/01 07:31:22;;;;;;;1.23;0.40;;;22.20;35.80;;;;;;5019401;28;20025;-44
2021/05/01 07:33:53;;;;;;;1.67;0.38;;;22.20;35.80;;;;;;5030898;28;20061;-46
2021/05/01 07:36:23;;;;;;;0.85;0.30;;;22.20;35.80;;;;;;5031245;28;20100;-46
2021/05/01 07:38:52;;;;;;;1.23;0.43;;;22.20;35.70;;;;;;5030627;28;20041;-46
2021/05/01 07:41:22;;;;;;;0.88;0.50;;;22.20;35.80;;;;;;5033080;28;20052;-43
2021/05/01 07:43:51;;;;;;;2.90;0.50;;;22.20;35.80;;;;;;5034429;28;20414;-46
2021/05/01 07:46:20;;;;;;;1.35;0.55;;;22.20;35.70;;;;;;5032398;28;20114;-45
2021/05/01 07:48:47;;;;;;;1.25;0.50;;;22.20;35.80;;;;;;5030749;28;20057;-45
2021/05/01 07:51:13;;;;;;;0.60;0.32;;;22.20;35.70;;;;;;5024593;28;20025;-44
2021/05/01 07:53:39;;;;;;;0.80;0.30;;;22.20;35.70;;;;;;5029990;28;20032;-45
2021/05/01 07:56:04;;;;;;;0.88;0.47;;;22.20;35.70;;;;;;5030973;28;20410;-43
2021/05/01 07:58:30;;;;;;;0.88;0.40;;;22.20;35.70;;;;;;5030644;28;20029;-45
2021/05/01 08:00:56;;;;;;;1.27;0.40;;;22.20;35.70;;;;;;5036938;28;20033;-46
2021/05/01 08:03:22;;;;;;;1.67;0.35;;;22.20;35.70;;;;;;5030134;28;20025;-43
2021/05/01 08:05:48;;;;;;;1.45;0.25;;;22.30;35.70;;;;;;5029360;28;20056;-44
2021/05/01 08:08:14;;;;;;;0.80;0.38;;;22.30;35.60;;;;;;5034874;28;20048;-47
2021/05/01 08:10:40;;;;;;;1.42;0.47;;;22.30;35.70;;;;;;5029793;28;20057;-43
2021/05/01 08:13:06;;;;;;;2.95;0.45;;;22.30;35.60;;;;;;5028944;28;20045;-44
2021/05/01 08:15:33;;;;;;;0.70;0.30;;;22.30;35.60;;;;;;5027329;28;20448;-44
2021/05/01 08:18:01;;;;;;;0.57;0.20;;;22.30;35.60;;;;;;5021216;28;20115;-45
2021/05/01 08:20:28;;;;;;;1.15;0.50;;;22.30;35.60;;;;;;5029531;28;20503;-44
2021/05/01 08:22:53;;;;;;;1.42;0.30;;;22.30;35.60;;;;;;5029860;28;20144;-43
2021/05/01 08:25:19;;;;;;;1.23;0.40;;;22.30;35.50;;;;;;5031126;28;20571;-47
2021/05/01 08:27:44;;;;;;;0.98;0.20;;;22.30;35.50;;;;;;5029212;28;20029;-44
2021/05/01 08:30:16;;;;;;;0.70;0.20;;;22.30;35.40;;;;;;5028044;28;20017;-46
2021/05/01 08:32:45;;;;;;;0.93;0.30;;;22.40;35.50;;;;;;5027637;28;20021;-45
2021/05/01 08:35:11;;;;;;;1.25;0.40;;;22.40;36.00;;;;;;5028288;28;20063;-45
2021/05/01 08:37:37;;;;;;;1.40;0.20;;;22.40;35.40;;;;;;5029878;28;20082;-44
2021/05/01 08:40:05;;;;;;;0.63;0.20;;;22.40;35.40;;;;;;5033963;28;20410;-44
2021/05/01 08:42:31;;;;;;;0.70;0.30;;;22.40;35.40;;;;;;5027573;28;20029;-44
2021/05/01 08:45:03;;;;;;;0.73;0.30;;;22.40;35.40;;;;;;5033455;28;20107;-45
2021/05/01 08:47:33;;;;;;;0.80;0.30;;;22.40;35.30;;;;;;5029227;28;20120;-45
2021/05/01 08:50:03;;;;;;;0.77;0.10;;;22.40;35.40;;;;;;5028230;28;20075;-45
2021/05/01 08:52:29;;;;;;;1.75;0.30;;;22.50;35.40;;;;;;5029792;28;20108;-47
2021/05/01 08:54:54;;;;;;;0.60;0.20;;;22.40;35.40;;;;;;5023533;28;20101;-46
2021/05/01 08:57:31;;;;;;;0.55;0.32;;;22.40;35.30;;;;;;5036511;28;20029;-47
2021/05/01 08:59:57;;;;;;;0.50;0.30;;;22.40;35.30;;;;;;5039072;28;20030;-46
2021/05/01 09:02:28;;;;;;;0.60;0.28;;;22.50;35.40;;;;;;5036634;28;20551;-46
2021/05/01 09:04:54;;;;;;;0.70;0.20;;;22.50;35.30;;;;;;5033293;28;20667;-46
2021/05/01 09:07:21;;;;;;;0.63;0.22;;;22.50;35.30;;;;;;5033772;28;20036;-46
2021/05/01 09:09:57;;;;;;;0.70;0.20;;;22.50;35.30;;;;;;5036060;28;20576;-44
2021/05/01 09:12:36;;;;;;;0.73;0.28;;;22.50;35.30;;;;;;5026408;28;20403;-46
2021/05/01 09:15:05;;;;;;;0.88;0.32;;;22.50;35.30;;;;;;5014866;28;20099;-44
2021/05/01 09:17:31;;;;;;;0.82;0.10;;;22.60;35.30;;;;;;5028676;28;20100;-46
2021/05/01 09:20:03;;;;;;;0.70;0.30;;;22.50;35.30;;;;;;5029205;28;20052;-45
2021/05/01 09:22:28;;;;;;;1.35;0.32;;;22.60;35.30;;;;;;5028969;28;20032;-47
2021/05/01 09:25:05;;;;;;;1.10;0.30;;;22.60;35.30;;;;;;5028851;28;20037;-44
2021/05/01 09:27:31;;;;;;;0.82;0.40;;;22.60;35.30;;;;;;5029203;28;20037;-44
2021/05/01 09:30:10;;;;;;;2.45;0.20;;;22.60;35.30;;;;;;5028968;28;20018;-45
2021/05/01 09:32:35;;;;;;;0.60;0.20;;;22.60;35.40;;;;;;5028837;28;20167;-46
2021/05/01 09:35:02;;;;;;;0.50;0.22;;;22.50;35.40;;;;;;5027401;28;20526;-45
2021/05/01 09:37:29;;;;;;;0.82;0.20;;;22.60;35.40;;;;;;5029544;28;20107;-46
2021/05/01 09:39:58;;;;;;;1.75;0.30;;;22.50;35.40;;;;;;5032156;28;20038;-44
2021/05/01 09:42:27;;;;;;;0.90;0.30;;;22.60;35.40;;;;;;5029208;28;20038;-47
2021/05/01 09:45:20;;;;;;;2.35;0.30;;;22.60;35.40;;;;;;5027064;28;20057;-45
2021/05/01 09:47:52;;;;;;;1.35;0.30;;;22.70;35.40;;;;;;5027724;28;20037;-44
2021/05/01 09:50:23;;;;;;;0.82;0.20;;;22.70;35.30;;;;;;5034097;28;20048;-46
2021/05/01 09:53:01;;;;;;;1.05;0.25;;;22.70;35.30;;;;;;5029755;28;20029;-46
2021/05/01 09:55:48;;;;;;;0.43;0.20;;;22.70;35.30;;;;;;5030869;28;20642;-46
2021/05/01 09:58:13;;;;;;;0.80;0.20;;;22.70;35.30;;;;;;5029216;28;20033;-45
2021/05/01 10:00:39;;;;;;;1.15;0.20;;;22.60;35.30;;;;;;5032654;28;20432;-44
2021/05/01 10:03:28;;;;;;;0.80;0.28;;;22.60;35.30;;;;;;5032183;28;20041;-44
2021/05/01 10:05:59;;;;;;;0.40;0.20;;;22.70;35.40;;;;;;5026270;28;20092;-47
2021/05/01 10:08:32;;;;;;;;;;;22.70;35.40;;;;;;5030452;28;20025;-43
2021/05/01 10:11:10;;;;;;;0.52;0.20;;;22.70;35.30;;;;;;5029382;28;19916;-45
2021/05/01 10:13:48;;;;;;;1.67;0.40;;;22.70;35.20;;;;;;5020783;28;20058;-46
2021/05/01 10:16:15;;;;;;;0.50;0.20;;;22.70;35.20;;;;;;5024165;28;20030;-46
2021/05/01 10:19:08;;;;;;;1.00;0.20;;;22.80;35.30;;;;;;5024311;28;20029;-46
2021/05/01 10:21:37;;;;;;;1.27;0.40;;;22.80;35.30;;;;;;5019218;28;20025;-47
2021/05/01 10:24:03;;;;;;;1.05;0.20;;;22.80;35.20;;;;;;5017732;28;20039;-45
2021/05/01 10:26:47;;;;;;;1.35;0.40;;;22.80;35.30;;;;;;5019248;28;20034;-46
2021/05/01 10:29:31;;;;;;;1.83;0.32;;;22.80;35.20;;;;;;5008195;28;20061;-45
2021/05/01 10:31:58;;;;;;;2.38;0.40;;;22.90;35.20;;;;;;5019297;28;20047;-46
2021/05/01 10:34:24;;;;;;;0.70;0.32;;;22.80;35.20;;;;;;5026465;28;20038;-48
2021/05/01 10:36:53;;;;;;;1.10;0.30;;;22.90;35.50;;;;;;5027165;28;20040;-50
2021/05/01 10:39:19;;;;;;;1.35;0.50;;;23.00;35.90;;;;;;5022896;28;20026;-47
2021/05/01 10:41:59;;;;;;;2.00;0.30;;;23.00;35.60;;;;;;5025044;28;20569;-48
2021/05/01 10:44:25;;;;;;;1.85;0.50;;;23.00;35.70;;;;;;5022413;28;20034;-50
2021/05/01 10:47:06;;;;;;;1.13;0.20;;;22.90;35.70;;;;;;5026635;28;20470;-49
2021/05/01 10:49:35;;;;;;;0.65;0.25;;;22.90;35.70;;;;;;5026514;28;20085;-49
2021/05/01 10:52:13;;;;;;;2.00;0.50;;;22.90;35.70;;;;;;5023836;28;20101;-49
2021/05/01 10:54:54;;;;;;;0.95;0.30;;;22.90;35.60;;;;;;5027455;28;20032;-51
2021/05/01 10:57:20;;;;;;;0.88;0.32;;;22.90;35.60;;;;;;5039128;28;20041;-50
2021/05/01 10:59:57;;;;;;;1.05;0.20;;;22.90;35.50;;;;;;5030172;28;20033;-48
2021/05/01 11:02:35;;;;;;;1.40;0.40;;;22.90;35.50;;;;;;5030913;28;20034;-50
2021/05/01 11:05:04;;;;;;;1.25;0.60;;;22.90;35.50;;;;;;5028894;28;20021;-51
2021/05/01 11:07:39;;;;;;;1.02;0.30;;;22.90;35.40;;;;;;5030499;28;20038;-50
2021/05/01 11:10:06;;;;;;;0.70;0.30;;;22.90;35.40;;;;;;5022024;28;20044;-48
2021/05/01 11:12:36;;;;;;;0.82;0.40;;;23.00;35.40;;;;;;5029823;28;20030;-51
2021/05/01 11:15:08;;;;;;;0.50;0.30;;;23.00;35.40;;;;;;5026362;28;20029;-49
2021/05/01 11:17:36;;;;;;;0.50;0.22;;;23.00;35.40;;;;;;5020253;28;20037;-49
2021/05/01 11:20:18;;;;;;;0.70;0.43;;;23.00;35.40;;;;;;5019330;28;20029;-50
2021/05/01 11:22:47;;;;;;;1.77;0.30;;;23.00;35.40;;;;;;5020569;28;20410;-51
2021/05/01 11:25:18;;;;;;;0.82;0.30;;;23.00;35.40;;;;;;5022815;28;20026;-48
2021/05/01 11:27:46;;;;;;;2.30;0.30;;;23.00;35.40;;;;;;5020012;28;20112;-50
2021/05/01 11:30:14;;;;;;;0.60;0.32;;;23.00;35.40;;;;;;5024368;28;20057;-49
2021/05/01 11:32:40;;;;;;;0.52;0.30;;;23.00;35.40;;;;;;5030551;28;20045;-50
2021/05/01 11:35:12;;;;;;;1.00;0.50;;;23.00;35.50;;;;;;5031664;28;20049;-51
2021/05/01 11:37:44;;;;;;;0.70;0.30;;;23.00;35.40;;;;;;5022608;28;20109;-48
2021/05/01 11:40:13;;;;;;;0.50;0.20;;;23.00;35.40;;;;;;5023888;28;20546;-49
2021/05/01 11:42:41;;;;;;;0.63;0.30;;;23.00;35.40;;;;;;5027393;28;20034;-51
2021/05/01 11:45:09;;;;;;;0.63;0.28;;;23.00;35.40;;;;;;5027491;28;20017;-50
2021/05/01 11:47:36;;;;;;;1.33;0.40;;;23.00;35.40;;;;;;5031561;28;20033;-48
2021/05/01 11:50:02;;;;;;;1.88;0.25;;;23.00;35.40;;;;;;5031208;28;20465;-47
2021/05/01 11:52:51;;;;;;;0.80;0.45;;;23.00;35.40;;;;;;5030336;28;20025;-50
2021/05/01 11:55:31;;;;;;;0.70;0.20;;;23.00;35.40;;;;;;5024630;28;20064;-51
2021/05/01 11:58:02;;;;;;;0.60;0.28;;;23.00;35.50;;;;;;5027784;28;20562;-50
2021/05/01 12:00:33;;;;;;;0.60;0.20;;;23.00;35.40;;;;;;5028105;28;20068;-49
2021/05/01 12:03:00;;;;;;;1.00;0.40;;;23.00;35.40;;;;;;5023079;28;20158;-50
2021/05/01 12:05:37;;;;;;;1.70;0.20;;;23.00;35.30;;;;;;5031974;28;20025;-48
2021/05/01 12:08:20;;;;;;;0.80;0.40;;;23.10;35.40;;;;;;5021340;28;20098;-48
2021/05/01 12:10:49;;;;;;;1.17;0.40;;;23.20;35.70;;;;;;5032507;28;20032;-49
2021/05/01 12:13:28;;;;;;;0.85;0.30;;;23.20;35.80;;;;;;5026500;28;20033;-46
2021/05/01 12:15:55;;;;;;;1.00;0.55;;;23.30;35.90;;;;;;5029750;28;20105;-50
2021/05/01 12:18:21;;;;;;;0.98;0.30;;;23.30;36.70;;;;;;5024073;28;20030;-45
2021/05/01 12:20:58;;;;;;;2.22;0.55;;;23.20;36.10;;;;;;5028329;28;20036;-46
2021/05/01 12:23:47;;;;;;;1.13;0.40;;;23.20;36.00;;;;;;5025859;28;20032;-44
2021/05/01 12:26:40;;;;;;;1.10;0.30;;;23.20;36.00;;;;;;5029959;28;20098;-45
2021/05/01 12:29:18;;;;;;;2.05;0.28;;;23.20;35.90;;;;;;5030047;28;20112;-45
2021/05/01 12:31:46;;;;;;;0.70;0.25;;;23.10;35.90;;;;;;5030769;28;20030;-45
2021/05/01 12:34:12;;;;;;;1.13;0.50;;;23.10;35.80;;;;;;5027396;28;20021;-43
2021/05/01 12:36:42;;;;;;;3.30;0.60;;;23.10;35.80;;;;;;5029951;28;20029;-44
2021/05/01 12:39:09;;;;;;;4.10;0.30;;;23.10;35.80;;;;;;5030245;28;20057;-45
2021/05/01 12:41:36;;;;;;;1.35;0.35;;;23.10;35.80;;;;;;5026628;28;20091;-46
2021/05/01 12:44:03;;;;;;;0.68;0.30;;;23.10;35.80;;;;;;5024994;28;20033;-43
2021/05/01 12:46:28;;;;;;;2.70;0.45;;;23.10;35.70;;;;;;5027977;28;20033;-46
2021/05/01 12:48:55;;;;;;;1.10;0.45;;;23.10;35.70;;;;;;5011422;28;20029;-49
2021/05/01 12:51:35;;;;;;;0.80;0.47;;;23.10;35.70;;;;;;5028257;28;20386;-46
2021/05/01 12:54:20;;;;;;;0.70;0.30;;;23.10;35.60;;;;;;5019088;28;20506;-45